Impacts TAF Board
For situational awareness. Not to be used for flight planning purposes.
IDs:

KLGA - New York/La Guardia, NY, US

Issued at 0227 UTC 03 Jul 2022
Updated at 0518 UTC 03 Jul 2022
Potential Impact None Slight Moderate High
Time0451Z 03/06Z 03/07Z 03/08Z 03/09Z 03/10Z 03/11Z 03/12Z 03/13Z 03/14Z 03/15Z 03/16Z 03/17Z 03/18Z>>
Type OBS PRVL PRVL PRVL PRVL PRVL PRVL PRVL PRVL PRVL PRVL PRVL PRVL PRVL
VIS 10 >6 >6 >6 >6 >6 >6 >6 >6 >6 >6 >6 >6 >6
CIG 250 40 40 40 40 40 40 40 50 50 50 50 50 50
Cover BKN BKN BKN BKN BKN BKN BKN BKN BKN BKN BKN BKN BKN BKN
FltCat VFR VFR VFR VFR VFR VFR VFR VFR VFR VFR VFR VFR VFR VFR
WX -- -- -- -- -- -- -- -- -- -- -- -- -- --
WDir 100 VRB VRB VRB VRB VRB VRB VRB 350 350 350 350 350 350
WSpd 4 5 5 5 5 5 5 5 10 10 10 10 10 10
WGst -- -- -- -- -- -- -- -- -- -- -- -- -- --
WSHgt -- -- -- -- -- -- -- -- -- -- -- -- -- --
WSDir -- -- -- -- -- -- -- -- -- -- -- -- -- --
WSSpd -- -- -- -- -- -- -- -- -- -- -- -- -- --
Raw TAF
KLGA 030227Z 0302/0406 28004KT P6SM FEW060 BKN250
  FM030600 VRB05KT P6SM BKN040 BKN100
  FM031300 35010KT P6SM BKN050 BKN250
  FM032000 21009KT P6SM SCT050 SCT250
  FM040300 33008KT P6SM FEW250


Raw METAR
KLGA 030451Z 10004KT 10SM FEW043 SCT070 BKN250 26/19 A2993 RMK AO2 SLP134 T02610189 403280250 $
KLGA 030351Z 04006KT 10SM FEW050 FEW060 BKN250 26/18 A2992 RMK AO2 SLP132 T02560178 $
KLGA 030251Z 00000KT 10SM SCT065 BKN250 28/18 A2991 RMK AO2 SLP129 T02780178 51010 $

METAR Board
Radar Display
Forecast Discussion
For situational awareness. Not to be used for flight planning purposes.